sensor_id;sensor_type;location;lat;lon;timestamp;P1;durP1;ratioP1;P2;durP2;ratioP2
56037;SDS011;41907;47.848;9.000;2023-02-28T00:00:26;8.30;;;5.45;;
56037;SDS011;41907;47.848;9.000;2023-02-28T00:02:51;9.75;;;5.78;;
56037;SDS011;41907;47.848;9.000;2023-02-28T00:05:18;6.25;;;4.47;;
56037;SDS011;41907;47.848;9.000;2023-02-28T00:07:46;7.63;;;5.30;;
56037;SDS011;41907;47.848;9.000;2023-02-28T00:10:14;9.90;;;5.80;;
56037;SDS011;41907;47.848;9.000;2023-02-28T00:12:45;8.90;;;5.47;;
56037;SDS011;41907;47.848;9.000;2023-02-28T00:15:11;6.22;;;4.82;;
56037;SDS011;41907;47.848;9.000;2023-02-28T00:17:36;8.18;;;5.95;;
56037;SDS011;41907;47.848;9.000;2023-02-28T00:20:03;9.50;;;5.57;;
56037;SDS011;41907;47.848;9.000;2023-02-28T00:22:31;7.53;;;5.20;;
56037;SDS011;41907;47.848;9.000;2023-02-28T00:24:56;9.10;;;5.43;;
56037;SDS011;41907;47.848;9.000;2023-02-28T00:27:21;8.32;;;5.18;;
56037;SDS011;41907;47.848;9.000;2023-02-28T00:29:47;7.68;;;4.97;;
56037;SDS011;41907;47.848;9.000;2023-02-28T00:32:12;7.40;;;5.40;;
56037;SDS011;41907;47.848;9.000;2023-02-28T00:34:38;6.80;;;4.97;;
56037;SDS011;41907;47.848;9.000;2023-02-28T00:37:04;7.22;;;5.20;;
56037;SDS011;41907;47.848;9.000;2023-02-28T00:39:34;9.60;;;4.72;;
56037;SDS011;41907;47.848;9.000;2023-02-28T00:42:01;8.65;;;5.22;;
56037;SDS011;41907;47.848;9.000;2023-02-28T00:44:27;5.68;;;4.50;;
56037;SDS011;41907;47.848;9.000;2023-02-28T00:46:53;9.82;;;5.43;;
56037;SDS011;41907;47.848;9.000;2023-02-28T00:49:19;6.60;;;4.57;;
56037;SDS011;41907;47.848;9.000;2023-02-28T00:51:45;8.45;;;5.32;;
56037;SDS011;41907;47.848;9.000;2023-02-28T00:54:11;8.43;;;4.85;;
56037;SDS011;41907;47.848;9.000;2023-02-28T00:56:36;7.25;;;4.78;;
56037;SDS011;41907;47.848;9.000;2023-02-28T00:59:01;9.88;;;4.97;;
56037;SDS011;41907;47.848;9.000;2023-02-28T01:01:27;8.23;;;5.00;;
56037;SDS011;41907;47.848;9.000;2023-02-28T01:03:52;7.20;;;4.78;;
56037;SDS011;41907;47.848;9.000;2023-02-28T01:06:17;7.47;;;4.97;;
56037;SDS011;41907;47.848;9.000;2023-02-28T01:08:43;6.65;;;4.38;;
56037;SDS011;41907;47.848;9.000;2023-02-28T01:11:12;6.10;;;4.50;;
56037;SDS011;41907;47.848;9.000;2023-02-28T01:13:39;7.13;;;5.18;;
56037;SDS011;41907;47.848;9.000;2023-02-28T01:16:06;7.10;;;5.18;;
56037;SDS011;41907;47.848;9.000;2023-02-28T01:18:31;8.15;;;4.88;;
56037;SDS011;41907;47.848;9.000;2023-02-28T01:20:57;8.50;;;4.45;;
56037;SDS011;41907;47.848;9.000;2023-02-28T01:23:22;5.85;;;4.50;;
56037;SDS011;41907;47.848;9.000;2023-02-28T01:25:49;6.05;;;4.00;;
56037;SDS011;41907;47.848;9.000;2023-02-28T01:28:15;7.35;;;4.40;;
56037;SDS011;41907;47.848;9.000;2023-02-28T01:30:40;9.63;;;4.75;;
56037;SDS011;41907;47.848;9.000;2023-02-28T01:33:06;6.03;;;4.30;;
56037;SDS011;41907;47.848;9.000;2023-02-28T01:35:34;8.18;;;4.50;;
56037;SDS011;41907;47.848;9.000;2023-02-28T01:38:01;7.80;;;4.40;;
56037;SDS011;41907;47.848;9.000;2023-02-28T01:40:27;8.35;;;4.72;;
56037;SDS011;41907;47.848;9.000;2023-02-28T01:42:52;8.55;;;4.18;;
56037;SDS011;41907;47.848;9.000;2023-02-28T01:45:25;6.55;;;4.97;;
56037;SDS011;41907;47.848;9.000;2023-02-28T01:47:59;5.10;;;3.97;;
56037;SDS011;41907;47.848;9.000;2023-02-28T01:50:31;8.25;;;4.75;;
56037;SDS011;41907;47.848;9.000;2023-02-28T01:53:04;9.52;;;4.93;;
56037;SDS011;41907;47.848;9.000;2023-02-28T01:55:35;9.35;;;5.13;;
56037;SDS011;41907;47.848;9.000;2023-02-28T01:58:02;7.22;;;5.25;;
56037;SDS011;41907;47.848;9.000;2023-02-28T02:00:31;8.30;;;5.32;;
56037;SDS011;41907;47.848;9.000;2023-02-28T02:02:57;6.63;;;4.63;;
56037;SDS011;41907;47.848;9.000;2023-02-28T02:05:26;7.90;;;4.95;;
56037;SDS011;41907;47.848;9.000;2023-02-28T02:07:56;6.63;;;4.47;;
56037;SDS011;41907;47.848;9.000;2023-02-28T02:10:31;8.30;;;4.40;;
56037;SDS011;41907;47.848;9.000;2023-02-28T02:18:53;6.95;;;5.07;;
56037;SDS011;41907;47.848;9.000;2023-02-28T02:41:36;7.28;;;5.00;;
56037;SDS011;41907;47.848;9.000;2023-02-28T02:44:17;6.22;;;4.78;;
56037;SDS011;41907;47.848;9.000;2023-02-28T02:46:51;8.15;;;4.20;;
56037;SDS011;41907;47.848;9.000;2023-02-28T02:49:28;8.23;;;4.82;;
56037;SDS011;41907;47.848;9.000;2023-02-28T02:51:57;8.20;;;4.82;;
56037;SDS011;41907;47.848;9.000;2023-02-28T02:54:30;8.40;;;4.80;;
56037;SDS011;41907;47.848;9.000;2023-02-28T02:56:59;7.25;;;4.18;;
56037;SDS011;41907;47.848;9.000;2023-02-28T02:59:29;8.30;;;5.20;;
56037;SDS011;41907;47.848;9.000;2023-02-28T03:01:56;7.03;;;4.50;;
56037;SDS011;41907;47.848;9.000;2023-02-28T03:04:25;7.72;;;4.63;;
56037;SDS011;41907;47.848;9.000;2023-02-28T03:06:56;6.85;;;5.03;;
56037;SDS011;41907;47.848;9.000;2023-02-28T03:09:21;7.07;;;4.82;;
56037;SDS011;41907;47.848;9.000;2023-02-28T03:11:47;7.05;;;4.80;;
56037;SDS011;41907;47.848;9.000;2023-02-28T03:19:33;6.32;;;4.20;;
56037;SDS011;41907;47.848;9.000;2023-02-28T03:22:06;7.18;;;4.13;;
56037;SDS011;41907;47.848;9.000;2023-02-28T03:33:20;7.80;;;4.60;;
56037;SDS011;41907;47.848;9.000;2023-02-28T03:35:51;8.02;;;5.25;;
56037;SDS011;41907;47.848;9.000;2023-02-28T03:38:27;7.80;;;4.32;;
56037;SDS011;41907;47.848;9.000;2023-02-28T03:41:00;8.93;;;4.63;;
56037;SDS011;41907;47.848;9.000;2023-02-28T03:43:32;8.05;;;4.43;;
56037;SDS011;41907;47.848;9.000;2023-02-28T03:46:02;6.90;;;4.40;;
56037;SDS011;41907;47.848;9.000;2023-02-28T03:51:38;7.00;;;4.47;;
56037;SDS011;41907;47.848;9.000;2023-02-28T03:54:07;6.30;;;4.70;;
56037;SDS011;41907;47.848;9.000;2023-02-28T03:56:38;6.82;;;4.65;;
56037;SDS011;41907;47.848;9.000;2023-02-28T03:59:22;6.43;;;4.65;;
56037;SDS011;41907;47.848;9.000;2023-02-28T04:01:53;7.37;;;4.60;;
56037;SDS011;41907;47.848;9.000;2023-02-28T04:04:20;7.85;;;4.65;;
56037;SDS011;41907;47.848;9.000;2023-02-28T04:06:47;6.55;;;4.22;;
56037;SDS011;41907;47.848;9.000;2023-02-28T04:09:15;6.57;;;4.20;;
56037;SDS011;41907;47.848;9.000;2023-02-28T04:11:50;8.15;;;4.30;;
56037;SDS011;41907;47.848;9.000;2023-02-28T04:14:17;8.23;;;3.85;;
56037;SDS011;41907;47.848;9.000;2023-02-28T04:16:43;7.18;;;4.82;;
56037;SDS011;41907;47.848;9.000;2023-02-28T04:19:09;7.97;;;4.72;;
56037;SDS011;41907;47.848;9.000;2023-02-28T04:21:36;6.45;;;4.38;;
56037;SDS011;41907;47.848;9.000;2023-02-28T04:24:07;6.43;;;4.10;;
56037;SDS011;41907;47.848;9.000;2023-02-28T04:26:39;7.07;;;4.63;;
56037;SDS011;41907;47.848;9.000;2023-02-28T04:29:05;6.90;;;4.28;;
56037;SDS011;41907;47.848;9.000;2023-02-28T04:31:31;10.02;;;4.68;;
56037;SDS011;41907;47.848;9.000;2023-02-28T04:33:57;8.38;;;4.43;;
56037;SDS011;41907;47.848;9.000;2023-02-28T04:36:22;8.52;;;4.85;;
56037;SDS011;41907;47.848;9.000;2023-02-28T04:38:48;6.43;;;4.90;;
56037;SDS011;41907;47.848;9.000;2023-02-28T04:41:14;7.30;;;4.45;;
56037;SDS011;41907;47.848;9.000;2023-02-28T04:43:39;7.20;;;4.68;;
56037;SDS011;41907;47.848;9.000;2023-02-28T04:46:05;6.72;;;4.85;;
56037;SDS011;41907;47.848;9.000;2023-02-28T04:48:32;6.45;;;4.80;;
56037;SDS011;41907;47.848;9.000;2023-02-28T04:51:02;7.68;;;4.53;;
56037;SDS011;41907;47.848;9.000;2023-02-28T04:53:29;7.55;;;4.68;;
56037;SDS011;41907;47.848;9.000;2023-02-28T04:55:55;6.55;;;4.43;;
56037;SDS011;41907;47.848;9.000;2023-02-28T04:58:21;8.20;;;4.90;;
56037;SDS011;41907;47.848;9.000;2023-02-28T05:00:50;7.60;;;4.70;;
56037;SDS011;41907;47.848;9.000;2023-02-28T05:03:16;7.10;;;4.43;;
56037;SDS011;41907;47.848;9.000;2023-02-28T05:05:42;7.38;;;4.65;;
56037;SDS011;41907;47.848;9.000;2023-02-28T05:08:07;7.47;;;5.18;;
56037;SDS011;41907;47.848;9.000;2023-02-28T05:10:33;8.57;;;4.68;;
56037;SDS011;41907;47.848;9.000;2023-02-28T05:12:58;9.55;;;4.75;;
56037;SDS011;41907;47.848;9.000;2023-02-28T05:15:24;6.32;;;4.65;;
56037;SDS011;41907;47.848;9.000;2023-02-28T05:17:49;8.48;;;5.03;;
56037;SDS011;41907;47.848;9.000;2023-02-28T05:20:15;7.90;;;4.88;;
56037;SDS011;41907;47.848;9.000;2023-02-28T05:22:41;8.85;;;5.57;;
56037;SDS011;41907;47.848;9.000;2023-02-28T05:25:08;8.68;;;5.47;;
56037;SDS011;41907;47.848;9.000;2023-02-28T05:27:37;9.23;;;5.00;;
56037;SDS011;41907;47.848;9.000;2023-02-28T05:30:02;10.02;;;5.18;;
56037;SDS011;41907;47.848;9.000;2023-02-28T05:32:29;6.25;;;4.18;;
56037;SDS011;41907;47.848;9.000;2023-02-28T05:34:54;7.32;;;4.95;;
56037;SDS011;41907;47.848;9.000;2023-02-28T05:37:19;7.65;;;4.85;;
56037;SDS011;41907;47.848;9.000;2023-02-28T05:39:45;8.18;;;5.38;;
56037;SDS011;41907;47.848;9.000;2023-02-28T05:42:11;10.10;;;5.68;;
56037;SDS011;41907;47.848;9.000;2023-02-28T05:44:36;7.82;;;5.00;;
56037;SDS011;41907;47.848;9.000;2023-02-28T05:47:01;8.88;;;5.13;;
56037;SDS011;41907;47.848;9.000;2023-02-28T05:49:27;9.68;;;5.78;;
56037;SDS011;41907;47.848;9.000;2023-02-28T05:51:52;7.85;;;5.18;;
56037;SDS011;41907;47.848;9.000;2023-02-28T05:54:18;7.65;;;5.20;;
56037;SDS011;41907;47.848;9.000;2023-02-28T05:56:43;8.73;;;4.85;;
56037;SDS011;41907;47.848;9.000;2023-02-28T05:59:14;10.32;;;6.07;;
56037;SDS011;41907;47.848;9.000;2023-02-28T06:01:43;8.40;;;4.97;;
56037;SDS011;41907;47.848;9.000;2023-02-28T06:04:13;9.63;;;5.25;;
56037;SDS011;41907;47.848;9.000;2023-02-28T06:06:43;7.93;;;4.63;;
56037;SDS011;41907;47.848;9.000;2023-02-28T06:09:17;8.98;;;5.97;;
56037;SDS011;41907;47.848;9.000;2023-02-28T06:11:44;10.20;;;5.50;;
56037;SDS011;41907;47.848;9.000;2023-02-28T06:14:12;11.40;;;5.80;;
56037;SDS011;41907;47.848;9.000;2023-02-28T06:16:41;8.57;;;6.35;;
56037;SDS011;41907;47.848;9.000;2023-02-28T06:19:06;8.30;;;5.40;;
56037;SDS011;41907;47.848;9.000;2023-02-28T06:21:31;9.98;;;6.30;;
56037;SDS011;41907;47.848;9.000;2023-02-28T06:23:57;11.93;;;6.22;;
56037;SDS011;41907;47.848;9.000;2023-02-28T06:26:23;8.82;;;5.72;;
56037;SDS011;41907;47.848;9.000;2023-02-28T06:28:48;11.90;;;5.80;;
56037;SDS011;41907;47.848;9.000;2023-02-28T06:31:14;11.38;;;5.97;;
56037;SDS011;41907;47.848;9.000;2023-02-28T06:33:42;9.52;;;5.72;;
56037;SDS011;41907;47.848;9.000;2023-02-28T06:36:10;10.13;;;5.95;;
56037;SDS011;41907;47.848;9.000;2023-02-28T06:38:37;12.57;;;7.10;;
56037;SDS011;41907;47.848;9.000;2023-02-28T06:41:03;9.90;;;6.38;;
56037;SDS011;41907;47.848;9.000;2023-02-28T06:43:31;9.30;;;5.65;;
56037;SDS011;41907;47.848;9.000;2023-02-28T06:46:00;9.05;;;6.32;;
56037;SDS011;41907;47.848;9.000;2023-02-28T06:48:27;9.85;;;6.00;;
56037;SDS011;41907;47.848;9.000;2023-02-28T06:51:01;10.65;;;6.90;;
56037;SDS011;41907;47.848;9.000;2023-02-28T06:53:27;12.20;;;6.72;;
56037;SDS011;41907;47.848;9.000;2023-02-28T06:55:53;12.02;;;6.25;;
56037;SDS011;41907;47.848;9.000;2023-02-28T06:58:18;10.48;;;6.50;;
56037;SDS011;41907;47.848;9.000;2023-02-28T07:00:44;10.30;;;6.20;;
56037;SDS011;41907;47.848;9.000;2023-02-28T07:03:11;10.43;;;6.78;;
56037;SDS011;41907;47.848;9.000;2023-02-28T07:05:38;18.52;;;8.63;;
56037;SDS011;41907;47.848;9.000;2023-02-28T07:08:05;14.93;;;8.30;;
56037;SDS011;41907;47.848;9.000;2023-02-28T07:10:33;12.30;;;7.50;;
56037;SDS011;41907;47.848;9.000;2023-02-28T07:12:59;11.80;;;6.30;;
56037;SDS011;41907;47.848;9.000;2023-02-28T07:15:25;14.15;;;6.95;;
56037;SDS011;41907;47.848;9.000;2023-02-28T07:17:50;8.90;;;5.90;;
56037;SDS011;41907;47.848;9.000;2023-02-28T07:20:16;9.32;;;6.20;;
56037;SDS011;41907;47.848;9.000;2023-02-28T07:22:41;10.48;;;6.45;;
56037;SDS011;41907;47.848;9.000;2023-02-28T07:25:07;12.23;;;7.32;;
56037;SDS011;41907;47.848;9.000;2023-02-28T07:27:33;12.85;;;6.55;;
56037;SDS011;41907;47.848;9.000;2023-02-28T07:29:59;13.38;;;7.03;;
56037;SDS011;41907;47.848;9.000;2023-02-28T07:32:26;10.13;;;6.13;;
56037;SDS011;41907;47.848;9.000;2023-02-28T07:34:52;12.60;;;6.75;;
56037;SDS011;41907;47.848;9.000;2023-02-28T07:37:18;10.02;;;6.18;;
56037;SDS011;41907;47.848;9.000;2023-02-28T07:39:43;9.68;;;6.40;;
56037;SDS011;41907;47.848;9.000;2023-02-28T07:42:09;10.18;;;6.13;;
56037;SDS011;41907;47.848;9.000;2023-02-28T07:44:36;11.05;;;6.68;;
56037;SDS011;41907;47.848;9.000;2023-02-28T07:47:05;13.07;;;7.18;;
56037;SDS011;41907;47.848;9.000;2023-02-28T07:49:35;14.68;;;6.63;;
56037;SDS011;41907;47.848;9.000;2023-02-28T07:52:02;16.38;;;7.05;;
56037;SDS011;41907;47.848;9.000;2023-02-28T07:54:28;10.40;;;6.63;;
56037;SDS011;41907;47.848;9.000;2023-02-28T07:56:53;10.63;;;6.05;;
56037;SDS011;41907;47.848;9.000;2023-02-28T07:59:19;9.88;;;5.85;;
56037;SDS011;41907;47.848;9.000;2023-02-28T08:01:44;11.65;;;7.03;;
56037;SDS011;41907;47.848;9.000;2023-02-28T08:04:09;10.43;;;6.20;;
56037;SDS011;41907;47.848;9.000;2023-02-28T08:06:35;10.68;;;6.10;;
56037;SDS011;41907;47.848;9.000;2023-02-28T08:09:00;9.07;;;6.00;;
56037;SDS011;41907;47.848;9.000;2023-02-28T08:11:26;8.95;;;6.20;;
56037;SDS011;41907;47.848;9.000;2023-02-28T08:13:51;9.88;;;6.28;;
56037;SDS011;41907;47.848;9.000;2023-02-28T08:16:17;13.32;;;6.22;;
56037;SDS011;41907;47.848;9.000;2023-02-28T08:18:46;12.02;;;6.78;;
56037;SDS011;41907;47.848;9.000;2023-02-28T08:21:12;11.02;;;6.78;;
56037;SDS011;41907;47.848;9.000;2023-02-28T08:23:38;10.15;;;6.57;;
56037;SDS011;41907;47.848;9.000;2023-02-28T08:26:04;11.13;;;6.88;;
56037;SDS011;41907;47.848;9.000;2023-02-28T08:28:29;13.93;;;6.97;;
56037;SDS011;41907;47.848;9.000;2023-02-28T08:30:55;10.98;;;6.78;;
56037;SDS011;41907;47.848;9.000;2023-02-28T08:33:21;10.95;;;6.32;;
56037;SDS011;41907;47.848;9.000;2023-02-28T08:35:47;12.60;;;7.25;;
56037;SDS011;41907;47.848;9.000;2023-02-28T08:38:13;11.73;;;7.25;;
56037;SDS011;41907;47.848;9.000;2023-02-28T08:40:38;13.15;;;7.82;;
56037;SDS011;41907;47.848;9.000;2023-02-28T08:43:03;15.68;;;7.18;;
56037;SDS011;41907;47.848;9.000;2023-02-28T08:45:29;14.88;;;6.45;;
56037;SDS011;41907;47.848;9.000;2023-02-28T08:47:54;12.40;;;6.82;;
56037;SDS011;41907;47.848;9.000;2023-02-28T08:50:20;12.07;;;7.20;;
56037;SDS011;41907;47.848;9.000;2023-02-28T08:52:46;9.75;;;6.68;;
56037;SDS011;41907;47.848;9.000;2023-02-28T08:55:11;11.52;;;6.70;;
56037;SDS011;41907;47.848;9.000;2023-02-28T08:57:37;11.90;;;7.65;;
56037;SDS011;41907;47.848;9.000;2023-02-28T09:00:02;10.73;;;7.25;;
56037;SDS011;41907;47.848;9.000;2023-02-28T09:02:29;13.82;;;7.47;;
56037;SDS011;41907;47.848;9.000;2023-02-28T09:04:56;11.27;;;6.53;;
56037;SDS011;41907;47.848;9.000;2023-02-28T09:07:21;15.88;;;10.23;;
56037;SDS011;41907;47.848;9.000;2023-02-28T09:09:47;15.30;;;7.72;;
56037;SDS011;41907;47.848;9.000;2023-02-28T09:12:19;12.35;;;7.32;;
56037;SDS011;41907;47.848;9.000;2023-02-28T09:14:48;15.13;;;8.50;;
56037;SDS011;41907;47.848;9.000;2023-02-28T09:17:13;13.35;;;7.15;;
56037;SDS011;41907;47.848;9.000;2023-02-28T09:19:39;11.63;;;6.82;;
56037;SDS011;41907;47.848;9.000;2023-02-28T09:22:04;13.32;;;7.53;;
56037;SDS011;41907;47.848;9.000;2023-02-28T09:24:29;11.35;;;7.25;;
56037;SDS011;41907;47.848;9.000;2023-02-28T09:26:56;11.10;;;7.00;;
56037;SDS011;41907;47.848;9.000;2023-02-28T09:29:22;11.23;;;7.15;;
56037;SDS011;41907;47.848;9.000;2023-02-28T09:31:47;12.20;;;7.20;;
56037;SDS011;41907;47.848;9.000;2023-02-28T09:34:12;18.52;;;10.32;;
56037;SDS011;41907;47.848;9.000;2023-02-28T09:36:38;15.88;;;8.52;;
56037;SDS011;41907;47.848;9.000;2023-02-28T09:39:03;14.02;;;8.85;;
56037;SDS011;41907;47.848;9.000;2023-02-28T09:41:29;11.30;;;7.07;;
56037;SDS011;41907;47.848;9.000;2023-02-28T09:44:04;12.65;;;7.65;;
56037;SDS011;41907;47.848;9.000;2023-02-28T09:49:04;10.88;;;7.45;;
56037;SDS011;41907;47.848;9.000;2023-02-28T09:51:47;12.10;;;7.15;;
56037;SDS011;41907;47.848;9.000;2023-02-28T09:54:21;12.23;;;7.68;;
56037;SDS011;41907;47.848;9.000;2023-02-28T09:56:50;13.27;;;7.63;;
56037;SDS011;41907;47.848;9.000;2023-02-28T10:05:05;16.92;;;7.75;;
56037;SDS011;41907;47.848;9.000;2023-02-28T10:07:46;13.63;;;7.57;;
56037;SDS011;41907;47.848;9.000;2023-02-28T10:10:30;14.80;;;7.72;;
56037;SDS011;41907;47.848;9.000;2023-02-28T10:12:58;14.32;;;7.90;;
56037;SDS011;41907;47.848;9.000;2023-02-28T10:15:28;12.65;;;7.45;;
56037;SDS011;41907;47.848;9.000;2023-02-28T10:17:57;14.48;;;7.85;;
56037;SDS011;41907;47.848;9.000;2023-02-28T10:20:26;16.42;;;8.73;;
56037;SDS011;41907;47.848;9.000;2023-02-28T10:23:00;16.35;;;8.95;;
56037;SDS011;41907;47.848;9.000;2023-02-28T10:25:33;23.48;;;12.15;;
56037;SDS011;41907;47.848;9.000;2023-02-28T10:28:05;16.73;;;8.85;;
56037;SDS011;41907;47.848;9.000;2023-02-28T10:30:37;11.55;;;7.72;;
56037;SDS011;41907;47.848;9.000;2023-02-28T10:33:08;20.23;;;10.38;;
56037;SDS011;41907;47.848;9.000;2023-02-28T10:35:44;17.33;;;8.52;;
56037;SDS011;41907;47.848;9.000;2023-02-28T10:38:13;19.77;;;10.75;;
56037;SDS011;41907;47.848;9.000;2023-02-28T10:40:42;15.00;;;8.57;;
56037;SDS011;41907;47.848;9.000;2023-02-28T10:45:39;12.70;;;7.95;;
56037;SDS011;41907;47.848;9.000;2023-02-28T10:50:44;23.65;;;13.35;;
56037;SDS011;41907;47.848;9.000;2023-02-28T10:58:25;13.05;;;8.18;;
56037;SDS011;41907;47.848;9.000;2023-02-28T11:01:13;12.55;;;7.75;;
56037;SDS011;41907;47.848;9.000;2023-02-28T11:03:40;12.68;;;8.50;;
56037;SDS011;41907;47.848;9.000;2023-02-28T11:06:07;12.55;;;7.68;;
56037;SDS011;41907;47.848;9.000;2023-02-28T11:08:45;15.00;;;8.52;;
56037;SDS011;41907;47.848;9.000;2023-02-28T11:11:14;12.63;;;8.10;;
56037;SDS011;41907;47.848;9.000;2023-02-28T11:13:42;13.70;;;8.63;;
56037;SDS011;41907;47.848;9.000;2023-02-28T11:16:10;14.35;;;8.68;;
56037;SDS011;41907;47.848;9.000;2023-02-28T11:18:41;13.95;;;8.35;;
56037;SDS011;41907;47.848;9.000;2023-02-28T11:21:15;11.55;;;7.18;;
56037;SDS011;41907;47.848;9.000;2023-02-28T11:23:56;16.08;;;8.63;;
56037;SDS011;41907;47.848;9.000;2023-02-28T11:26:35;13.63;;;8.30;;
56037;SDS011;41907;47.848;9.000;2023-02-28T11:29:08;12.43;;;8.45;;
56037;SDS011;41907;47.848;9.000;2023-02-28T11:31:36;13.90;;;9.30;;
56037;SDS011;41907;47.848;9.000;2023-02-28T11:34:11;16.42;;;8.65;;
56037;SDS011;41907;47.848;9.000;2023-02-28T11:36:49;15.25;;;8.90;;
56037;SDS011;41907;47.848;9.000;2023-02-28T11:39:16;12.60;;;8.70;;
56037;SDS011;41907;47.848;9.000;2023-02-28T11:44:52;13.90;;;8.82;;
56037;SDS011;41907;47.848;9.000;2023-02-28T11:55:30;16.60;;;10.05;;
56037;SDS011;41907;47.848;9.000;2023-02-28T12:00:59;16.13;;;9.18;;
56037;SDS011;41907;47.848;9.000;2023-02-28T12:06:25;15.45;;;8.80;;
56037;SDS011;41907;47.848;9.000;2023-02-28T12:22:24;14.45;;;9.18;;
56037;SDS011;41907;47.848;9.000;2023-02-28T12:27:44;18.20;;;9.40;;
56037;SDS011;41907;47.848;9.000;2023-02-28T12:30:31;13.32;;;8.20;;
56037;SDS011;41907;47.848;9.000;2023-02-28T12:33:07;16.23;;;9.35;;
56037;SDS011;41907;47.848;9.000;2023-02-28T12:40:56;15.32;;;9.13;;
56037;SDS011;41907;47.848;9.000;2023-02-28T12:43:25;13.43;;;8.75;;
56037;SDS011;41907;47.848;9.000;2023-02-28T12:45:57;16.65;;;10.18;;
56037;SDS011;41907;47.848;9.000;2023-02-28T12:48:29;14.57;;;9.05;;
56037;SDS011;41907;47.848;9.000;2023-02-28T12:51:02;15.82;;;10.02;;
56037;SDS011;41907;47.848;9.000;2023-02-28T12:53:38;12.60;;;8.18;;
56037;SDS011;41907;47.848;9.000;2023-02-28T12:56:24;20.25;;;10.07;;
56037;SDS011;41907;47.848;9.000;2023-02-28T12:59:01;16.90;;;8.48;;
56037;SDS011;41907;47.848;9.000;2023-02-28T13:07:10;17.73;;;9.98;;
56037;SDS011;41907;47.848;9.000;2023-02-28T13:09:38;15.73;;;9.43;;
56037;SDS011;41907;47.848;9.000;2023-02-28T13:12:23;16.35;;;9.65;;
56037;SDS011;41907;47.848;9.000;2023-02-28T13:14:49;17.27;;;10.50;;
56037;SDS011;41907;47.848;9.000;2023-02-28T13:17:18;18.65;;;10.85;;
56037;SDS011;41907;47.848;9.000;2023-02-28T13:25:49;17.65;;;9.82;;
56037;SDS011;41907;47.848;9.000;2023-02-28T13:28:10;16.17;;;9.90;;
56037;SDS011;41907;47.848;9.000;2023-02-28T13:33:33;16.40;;;8.63;;
56037;SDS011;41907;47.848;9.000;2023-02-28T13:36:07;17.85;;;9.52;;
56037;SDS011;41907;47.848;9.000;2023-02-28T13:38:37;16.42;;;10.32;;
56037;SDS011;41907;47.848;9.000;2023-02-28T13:44:10;17.73;;;9.45;;
56037;SDS011;41907;47.848;9.000;2023-02-28T13:51:50;16.83;;;9.75;;
56037;SDS011;41907;47.848;9.000;2023-02-28T13:54:44;13.02;;;8.60;;
56037;SDS011;41907;47.848;9.000;2023-02-28T14:05:06;15.13;;;8.93;;
56037;SDS011;41907;47.848;9.000;2023-02-28T14:07:56;14.05;;;8.88;;
56037;SDS011;41907;47.848;9.000;2023-02-28T14:13:11;14.75;;;9.63;;
56037;SDS011;41907;47.848;9.000;2023-02-28T14:21:09;16.38;;;8.80;;
56037;SDS011;41907;47.848;9.000;2023-02-28T14:23:55;14.65;;;9.38;;
56037;SDS011;41907;47.848;9.000;2023-02-28T14:29:26;15.93;;;8.90;;
56037;SDS011;41907;47.848;9.000;2023-02-28T14:32:33;14.63;;;8.23;;
56037;SDS011;41907;47.848;9.000;2023-02-28T14:37:42;15.43;;;9.93;;
56037;SDS011;41907;47.848;9.000;2023-02-28T14:40:12;14.52;;;9.20;;
56037;SDS011;41907;47.848;9.000;2023-02-28T14:42:46;14.57;;;8.60;;
56037;SDS011;41907;47.848;9.000;2023-02-28T14:45:19;13.52;;;8.70;;
56037;SDS011;41907;47.848;9.000;2023-02-28T14:47:45;14.68;;;9.30;;
56037;SDS011;41907;47.848;9.000;2023-02-28T14:50:21;11.98;;;8.27;;
56037;SDS011;41907;47.848;9.000;2023-02-28T14:52:52;12.95;;;8.90;;
56037;SDS011;41907;47.848;9.000;2023-02-28T14:55:19;13.75;;;7.97;;
56037;SDS011;41907;47.848;9.000;2023-02-28T14:57:52;12.68;;;8.45;;
56037;SDS011;41907;47.848;9.000;2023-02-28T15:00:32;16.17;;;9.73;;
56037;SDS011;41907;47.848;9.000;2023-02-28T15:02:59;17.02;;;10.25;;
56037;SDS011;41907;47.848;9.000;2023-02-28T15:05:37;14.60;;;9.32;;
56037;SDS011;41907;47.848;9.000;2023-02-28T15:10:37;17.05;;;10.00;;
56037;SDS011;41907;47.848;9.000;2023-02-28T15:13:06;14.75;;;9.52;;
56037;SDS011;41907;47.848;9.000;2023-02-28T15:20:47;13.93;;;9.02;;
56037;SDS011;41907;47.848;9.000;2023-02-28T15:23:13;15.65;;;9.40;;
56037;SDS011;41907;47.848;9.000;2023-02-28T15:25:40;16.05;;;9.70;;
56037;SDS011;41907;47.848;9.000;2023-02-28T15:28:09;20.20;;;9.90;;
56037;SDS011;41907;47.848;9.000;2023-02-28T15:30:39;17.13;;;10.57;;
56037;SDS011;41907;47.848;9.000;2023-02-28T15:33:19;13.65;;;9.15;;
56037;SDS011;41907;47.848;9.000;2023-02-28T15:35:47;16.42;;;10.25;;
56037;SDS011;41907;47.848;9.000;2023-02-28T15:40:52;15.05;;;10.00;;
56037;SDS011;41907;47.848;9.000;2023-02-28T15:43:24;17.58;;;9.93;;
56037;SDS011;41907;47.848;9.000;2023-02-28T15:45:58;14.32;;;9.93;;
56037;SDS011;41907;47.848;9.000;2023-02-28T15:48:29;15.93;;;9.45;;
56037;SDS011;41907;47.848;9.000;2023-02-28T15:51:05;17.45;;;9.35;;
56037;SDS011;41907;47.848;9.000;2023-02-28T15:53:37;14.05;;;9.40;;
56037;SDS011;41907;47.848;9.000;2023-02-28T15:56:04;17.10;;;10.23;;
56037;SDS011;41907;47.848;9.000;2023-02-28T15:58:32;15.52;;;9.55;;
56037;SDS011;41907;47.848;9.000;2023-02-28T16:01:00;16.63;;;9.52;;
56037;SDS011;41907;47.848;9.000;2023-02-28T16:03:46;19.55;;;10.75;;
56037;SDS011;41907;47.848;9.000;2023-02-28T16:09:13;15.88;;;8.65;;
56037;SDS011;41907;47.848;9.000;2023-02-28T16:11:47;18.30;;;10.57;;
56037;SDS011;41907;47.848;9.000;2023-02-28T16:14:18;18.90;;;10.33;;
56037;SDS011;41907;47.848;9.000;2023-02-28T16:16:48;15.02;;;9.98;;
56037;SDS011;41907;47.848;9.000;2023-02-28T16:19:15;17.13;;;10.07;;
56037;SDS011;41907;47.848;9.000;2023-02-28T16:21:40;15.00;;;9.40;;
56037;SDS011;41907;47.848;9.000;2023-02-28T16:24:06;18.35;;;9.73;;
56037;SDS011;41907;47.848;9.000;2023-02-28T16:26:31;15.82;;;10.40;;
56037;SDS011;41907;47.848;9.000;2023-02-28T16:28:59;17.77;;;10.40;;
56037;SDS011;41907;47.848;9.000;2023-02-28T16:31:25;14.95;;;9.55;;
56037;SDS011;41907;47.848;9.000;2023-02-28T16:33:51;21.88;;;13.18;;
56037;SDS011;41907;47.848;9.000;2023-02-28T16:36:17;17.02;;;10.73;;
56037;SDS011;41907;47.848;9.000;2023-02-28T16:38:44;22.95;;;14.27;;
56037;SDS011;41907;47.848;9.000;2023-02-28T16:41:20;19.50;;;11.85;;
56037;SDS011;41907;47.848;9.000;2023-02-28T16:43:48;18.60;;;12.35;;
56037;SDS011;41907;47.848;9.000;2023-02-28T16:46:16;22.15;;;11.40;;
56037;SDS011;41907;47.848;9.000;2023-02-28T16:48:42;16.25;;;10.38;;
56037;SDS011;41907;47.848;9.000;2023-02-28T16:51:12;19.05;;;11.38;;
56037;SDS011;41907;47.848;9.000;2023-02-28T16:53:39;17.60;;;11.20;;
56037;SDS011;41907;47.848;9.000;2023-02-28T16:56:04;32.45;;;17.90;;
56037;SDS011;41907;47.848;9.000;2023-02-28T16:58:32;41.33;;;25.23;;
56037;SDS011;41907;47.848;9.000;2023-02-28T17:01:00;21.80;;;14.07;;
56037;SDS011;41907;47.848;9.000;2023-02-28T17:03:27;18.85;;;12.45;;
56037;SDS011;41907;47.848;9.000;2023-02-28T17:05:53;18.75;;;14.15;;
56037;SDS011;41907;47.848;9.000;2023-02-28T17:08:18;57.47;;;23.73;;
56037;SDS011;41907;47.848;9.000;2023-02-28T17:10:44;23.05;;;13.73;;
56037;SDS011;41907;47.848;9.000;2023-02-28T17:13:10;18.92;;;12.52;;
56037;SDS011;41907;47.848;9.000;2023-02-28T17:15:35;19.90;;;12.57;;
56037;SDS011;41907;47.848;9.000;2023-02-28T17:18:02;18.15;;;11.23;;
56037;SDS011;41907;47.848;9.000;2023-02-28T17:20:28;20.63;;;12.82;;
56037;SDS011;41907;47.848;9.000;2023-02-28T17:22:54;21.00;;;13.02;;
56037;SDS011;41907;47.848;9.000;2023-02-28T17:25:20;23.02;;;13.38;;